sensor_id;sensor_type;location;lat;lon;timestamp;P1;durP1;ratioP1;P2;durP2;ratioP2
47053;SDS011;32811;52.382;5.270;2023-03-14T00:01:10;19.58;;;2.90;;
47053;SDS011;32811;52.382;5.270;2023-03-14T00:06:05;10.40;;;1.95;;
47053;SDS011;32811;52.382;5.270;2023-03-14T00:08:32;9.85;;;1.70;;
47053;SDS011;32811;52.382;5.270;2023-03-14T00:11:06;8.18;;;1.80;;
47053;SDS011;32811;52.382;5.270;2023-03-14T00:13:38;14.23;;;2.13;;
47053;SDS011;32811;52.382;5.270;2023-03-14T00:16:05;12.45;;;1.85;;
47053;SDS011;32811;52.382;5.270;2023-03-14T00:18:34;19.77;;;3.38;;
47053;SDS011;32811;52.382;5.270;2023-03-14T00:21:01;14.27;;;2.45;;
47053;SDS011;32811;52.382;5.270;2023-03-14T00:23:29;12.43;;;2.25;;
47053;SDS011;32811;52.382;5.270;2023-03-14T00:26:00;10.80;;;1.80;;
47053;SDS011;32811;52.382;5.270;2023-03-14T00:28:28;15.55;;;2.58;;
47053;SDS011;32811;52.382;5.270;2023-03-14T00:30:55;11.00;;;1.92;;
47053;SDS011;32811;52.382;5.270;2023-03-14T00:33:22;13.48;;;1.55;;
47053;SDS011;32811;52.382;5.270;2023-03-14T00:35:58;5.70;;;1.38;;
47053;SDS011;32811;52.382;5.270;2023-03-14T00:38:29;11.57;;;2.08;;
47053;SDS011;32811;52.382;5.270;2023-03-14T00:40:56;8.60;;;1.50;;
47053;SDS011;32811;52.382;5.270;2023-03-14T00:43:23;14.13;;;2.92;;
47053;SDS011;32811;52.382;5.270;2023-03-14T00:45:50;9.10;;;2.45;;
47053;SDS011;32811;52.382;5.270;2023-03-14T00:48:18;7.55;;;1.02;;
47053;SDS011;32811;52.382;5.270;2023-03-14T00:50:46;8.63;;;1.13;;
47053;SDS011;32811;52.382;5.270;2023-03-14T00:53:13;13.40;;;2.15;;
47053;SDS011;32811;52.382;5.270;2023-03-14T00:55:40;12.75;;;2.05;;
47053;SDS011;32811;52.382;5.270;2023-03-14T00:58:09;13.10;;;1.80;;
47053;SDS011;32811;52.382;5.270;2023-03-14T01:00:36;11.07;;;2.28;;
47053;SDS011;32811;52.382;5.270;2023-03-14T01:03:03;16.02;;;1.55;;
47053;SDS011;32811;52.382;5.270;2023-03-14T01:05:31;13.10;;;1.65;;
47053;SDS011;32811;52.382;5.270;2023-03-14T01:07:57;8.70;;;2.30;;
47053;SDS011;32811;52.382;5.270;2023-03-14T01:10:25;9.93;;;2.33;;
47053;SDS011;32811;52.382;5.270;2023-03-14T01:12:51;12.88;;;2.35;;
47053;SDS011;32811;52.382;5.270;2023-03-14T01:15:18;10.18;;;2.03;;
47053;SDS011;32811;52.382;5.270;2023-03-14T01:17:45;5.82;;;1.25;;
47053;SDS011;32811;52.382;5.270;2023-03-14T01:20:13;8.57;;;1.45;;
47053;SDS011;32811;52.382;5.270;2023-03-14T01:22:42;9.18;;;1.20;;
47053;SDS011;32811;52.382;5.270;2023-03-14T01:25:12;8.48;;;1.40;;
47053;SDS011;32811;52.382;5.270;2023-03-14T01:27:40;15.30;;;1.83;;
47053;SDS011;32811;52.382;5.270;2023-03-14T01:30:07;11.70;;;1.58;;
47053;SDS011;32811;52.382;5.270;2023-03-14T01:32:35;11.60;;;1.38;;
47053;SDS011;32811;52.382;5.270;2023-03-14T01:35:02;7.40;;;1.65;;
47053;SDS011;32811;52.382;5.270;2023-03-14T01:37:29;7.30;;;1.63;;
47053;SDS011;32811;52.382;5.270;2023-03-14T01:39:56;9.15;;;1.75;;
47053;SDS011;32811;52.382;5.270;2023-03-14T01:42:22;9.98;;;1.95;;
47053;SDS011;32811;52.382;5.270;2023-03-14T01:44:50;9.23;;;1.63;;
47053;SDS011;32811;52.382;5.270;2023-03-14T01:47:17;7.65;;;2.05;;
47053;SDS011;32811;52.382;5.270;2023-03-14T01:49:44;10.20;;;1.50;;
47053;SDS011;32811;52.382;5.270;2023-03-14T01:52:13;7.38;;;0.93;;
47053;SDS011;32811;52.382;5.270;2023-03-14T01:55:15;13.75;;;1.38;;
47053;SDS011;32811;52.382;5.270;2023-03-14T01:57:56;13.75;;;1.75;;
47053;SDS011;32811;52.382;5.270;2023-03-14T02:00:27;14.10;;;2.05;;
47053;SDS011;32811;52.382;5.270;2023-03-14T02:02:55;12.18;;;1.92;;
47053;SDS011;32811;52.382;5.270;2023-03-14T02:05:31;22.50;;;4.68;;
47053;SDS011;32811;52.382;5.270;2023-03-14T02:08:01;11.23;;;2.38;;
47053;SDS011;32811;52.382;5.270;2023-03-14T02:10:30;14.43;;;3.60;;
47053;SDS011;32811;52.382;5.270;2023-03-14T02:12:59;18.38;;;2.92;;
47053;SDS011;32811;52.382;5.270;2023-03-14T02:15:28;11.52;;;2.78;;
47053;SDS011;32811;52.382;5.270;2023-03-14T02:17:55;12.73;;;2.88;;
47053;SDS011;32811;52.382;5.270;2023-03-14T02:22:56;19.10;;;2.63;;
47053;SDS011;32811;52.382;5.270;2023-03-14T02:28:11;15.38;;;2.78;;
47053;SDS011;32811;52.382;5.270;2023-03-14T02:30:38;14.57;;;1.98;;
47053;SDS011;32811;52.382;5.270;2023-03-14T02:33:05;9.35;;;2.58;;
47053;SDS011;32811;52.382;5.270;2023-03-14T02:35:37;11.15;;;2.35;;
47053;SDS011;32811;52.382;5.270;2023-03-14T02:40:52;15.32;;;2.38;;
47053;SDS011;32811;52.382;5.270;2023-03-14T02:43:19;18.92;;;2.00;;
47053;SDS011;32811;52.382;5.270;2023-03-14T02:45:46;8.88;;;1.60;;
47053;SDS011;32811;52.382;5.270;2023-03-14T02:51:16;12.93;;;2.00;;
47053;SDS011;32811;52.382;5.270;2023-03-14T02:53:43;11.55;;;2.45;;
47053;SDS011;32811;52.382;5.270;2023-03-14T02:56:09;12.85;;;1.90;;
47053;SDS011;32811;52.382;5.270;2023-03-14T02:58:36;13.55;;;3.15;;
47053;SDS011;32811;52.382;5.270;2023-03-14T03:01:03;13.27;;;1.58;;
47053;SDS011;32811;52.382;5.270;2023-03-14T03:03:31;9.68;;;1.85;;
47053;SDS011;32811;52.382;5.270;2023-03-14T03:05:58;7.30;;;2.53;;
47053;SDS011;32811;52.382;5.270;2023-03-14T03:08:25;9.65;;;1.33;;
47053;SDS011;32811;52.382;5.270;2023-03-14T03:10:53;6.95;;;1.77;;
47053;SDS011;32811;52.382;5.270;2023-03-14T03:13:20;8.15;;;1.38;;
47053;SDS011;32811;52.382;5.270;2023-03-14T03:15:46;14.18;;;1.85;;
47053;SDS011;32811;52.382;5.270;2023-03-14T03:18:13;16.70;;;3.70;;
47053;SDS011;32811;52.382;5.270;2023-03-14T03:20:40;13.32;;;1.90;;
47053;SDS011;32811;52.382;5.270;2023-03-14T03:23:06;8.25;;;1.08;;
47053;SDS011;32811;52.382;5.270;2023-03-14T03:25:33;8.02;;;1.40;;
47053;SDS011;32811;52.382;5.270;2023-03-14T03:28:00;13.60;;;1.77;;
47053;SDS011;32811;52.382;5.270;2023-03-14T03:30:27;8.13;;;1.30;;
47053;SDS011;32811;52.382;5.270;2023-03-14T03:32:54;12.68;;;2.10;;
47053;SDS011;32811;52.382;5.270;2023-03-14T03:35:20;8.43;;;1.92;;
47053;SDS011;32811;52.382;5.270;2023-03-14T03:37:47;8.30;;;1.33;;
47053;SDS011;32811;52.382;5.270;2023-03-14T03:40:13;8.27;;;1.55;;
47053;SDS011;32811;52.382;5.270;2023-03-14T03:42:40;9.32;;;1.63;;
47053;SDS011;32811;52.382;5.270;2023-03-14T03:45:07;10.77;;;2.53;;
47053;SDS011;32811;52.382;5.270;2023-03-14T03:47:34;9.98;;;1.73;;
47053;SDS011;32811;52.382;5.270;2023-03-14T03:50:00;7.78;;;1.60;;
47053;SDS011;32811;52.382;5.270;2023-03-14T03:52:27;5.80;;;2.08;;
47053;SDS011;32811;52.382;5.270;2023-03-14T03:54:53;8.70;;;3.45;;
47053;SDS011;32811;52.382;5.270;2023-03-14T03:57:20;11.85;;;2.40;;
47053;SDS011;32811;52.382;5.270;2023-03-14T03:59:47;12.13;;;1.45;;
47053;SDS011;32811;52.382;5.270;2023-03-14T04:02:13;10.50;;;1.60;;
47053;SDS011;32811;52.382;5.270;2023-03-14T04:04:40;15.23;;;2.47;;
47053;SDS011;32811;52.382;5.270;2023-03-14T04:07:07;9.52;;;1.73;;
47053;SDS011;32811;52.382;5.270;2023-03-14T04:09:33;7.95;;;1.60;;
47053;SDS011;32811;52.382;5.270;2023-03-14T04:12:00;13.13;;;2.25;;
47053;SDS011;32811;52.382;5.270;2023-03-14T04:14:27;7.30;;;1.58;;
47053;SDS011;32811;52.382;5.270;2023-03-14T04:16:53;6.25;;;1.30;;
47053;SDS011;32811;52.382;5.270;2023-03-14T04:19:20;9.57;;;2.13;;
47053;SDS011;32811;52.382;5.270;2023-03-14T04:21:47;12.60;;;1.80;;
47053;SDS011;32811;52.382;5.270;2023-03-14T04:24:13;6.63;;;1.70;;
47053;SDS011;32811;52.382;5.270;2023-03-14T04:26:40;13.05;;;1.80;;
47053;SDS011;32811;52.382;5.270;2023-03-14T04:29:07;14.18;;;1.88;;
47053;SDS011;32811;52.382;5.270;2023-03-14T04:31:34;8.45;;;1.52;;
47053;SDS011;32811;52.382;5.270;2023-03-14T04:34:00;5.75;;;1.30;;
47053;SDS011;32811;52.382;5.270;2023-03-14T04:36:27;9.98;;;1.90;;
47053;SDS011;32811;52.382;5.270;2023-03-14T04:38:53;14.93;;;3.03;;
47053;SDS011;32811;52.382;5.270;2023-03-14T04:41:20;11.10;;;1.88;;
47053;SDS011;32811;52.382;5.270;2023-03-14T04:43:47;16.77;;;2.72;;
47053;SDS011;32811;52.382;5.270;2023-03-14T04:46:13;6.82;;;1.92;;
47053;SDS011;32811;52.382;5.270;2023-03-14T04:48:40;10.18;;;1.90;;
47053;SDS011;32811;52.382;5.270;2023-03-14T04:51:07;11.05;;;2.00;;
47053;SDS011;32811;52.382;5.270;2023-03-14T04:53:33;8.32;;;2.47;;
47053;SDS011;32811;52.382;5.270;2023-03-14T04:56:01;11.60;;;2.45;;
47053;SDS011;32811;52.382;5.270;2023-03-14T04:58:28;12.00;;;2.22;;
47053;SDS011;32811;52.382;5.270;2023-03-14T05:00:55;9.15;;;2.42;;
47053;SDS011;32811;52.382;5.270;2023-03-14T05:03:22;10.48;;;2.13;;
47053;SDS011;32811;52.382;5.270;2023-03-14T05:05:48;14.10;;;1.45;;
47053;SDS011;32811;52.382;5.270;2023-03-14T05:08:15;18.65;;;2.90;;
47053;SDS011;32811;52.382;5.270;2023-03-14T05:10:41;5.75;;;1.38;;
47053;SDS011;32811;52.382;5.270;2023-03-14T05:13:08;9.43;;;1.13;;
47053;SDS011;32811;52.382;5.270;2023-03-14T05:15:34;18.70;;;2.35;;
47053;SDS011;32811;52.382;5.270;2023-03-14T05:18:01;11.13;;;2.70;;
47053;SDS011;32811;52.382;5.270;2023-03-14T05:20:28;8.05;;;1.75;;
47053;SDS011;32811;52.382;5.270;2023-03-14T05:22:54;7.88;;;1.75;;
47053;SDS011;32811;52.382;5.270;2023-03-14T05:25:21;6.97;;;1.13;;
47053;SDS011;32811;52.382;5.270;2023-03-14T05:27:47;7.65;;;1.88;;
47053;SDS011;32811;52.382;5.270;2023-03-14T05:30:14;9.95;;;1.98;;
47053;SDS011;32811;52.382;5.270;2023-03-14T05:32:40;10.10;;;1.55;;
47053;SDS011;32811;52.382;5.270;2023-03-14T05:35:07;8.95;;;1.10;;
47053;SDS011;32811;52.382;5.270;2023-03-14T05:37:34;10.25;;;2.78;;
47053;SDS011;32811;52.382;5.270;2023-03-14T05:40:01;12.85;;;2.50;;
47053;SDS011;32811;52.382;5.270;2023-03-14T05:42:27;6.75;;;1.38;;
47053;SDS011;32811;52.382;5.270;2023-03-14T05:44:54;6.28;;;1.50;;
47053;SDS011;32811;52.382;5.270;2023-03-14T05:47:21;7.13;;;2.20;;
47053;SDS011;32811;52.382;5.270;2023-03-14T05:49:47;3.45;;;1.55;;
47053;SDS011;32811;52.382;5.270;2023-03-14T05:52:14;5.65;;;1.58;;
47053;SDS011;32811;52.382;5.270;2023-03-14T05:54:41;3.85;;;1.13;;
47053;SDS011;32811;52.382;5.270;2023-03-14T05:57:07;7.90;;;1.20;;
47053;SDS011;32811;52.382;5.270;2023-03-14T05:59:34;9.68;;;1.73;;
47053;SDS011;32811;52.382;5.270;2023-03-14T06:02:01;5.60;;;1.33;;
47053;SDS011;32811;52.382;5.270;2023-03-14T06:04:27;7.22;;;1.98;;
47053;SDS011;32811;52.382;5.270;2023-03-14T06:06:54;4.82;;;1.77;;
47053;SDS011;32811;52.382;5.270;2023-03-14T06:09:21;3.47;;;0.98;;
47053;SDS011;32811;52.382;5.270;2023-03-14T06:11:49;7.53;;;1.85;;
47053;SDS011;32811;52.382;5.270;2023-03-14T06:14:16;4.88;;;0.80;;
47053;SDS011;32811;52.382;5.270;2023-03-14T06:16:43;2.65;;;0.85;;
47053;SDS011;32811;52.382;5.270;2023-03-14T06:19:10;2.03;;;0.52;;
47053;SDS011;32811;52.382;5.270;2023-03-14T06:21:38;4.82;;;0.70;;
47053;SDS011;32811;52.382;5.270;2023-03-14T06:24:04;2.35;;;0.70;;
47053;SDS011;32811;52.382;5.270;2023-03-14T06:26:31;3.10;;;0.30;;
47053;SDS011;32811;52.382;5.270;2023-03-14T06:28:58;0.70;;;0.30;;
47053;SDS011;32811;52.382;5.270;2023-03-14T06:31:29;5.45;;;0.68;;
47053;SDS011;32811;52.382;5.270;2023-03-14T06:33:56;1.80;;;0.25;;
47053;SDS011;32811;52.382;5.270;2023-03-14T06:36:23;5.25;;;1.27;;
47053;SDS011;32811;52.382;5.270;2023-03-14T06:38:50;2.50;;;1.17;;
47053;SDS011;32811;52.382;5.270;2023-03-14T06:41:16;3.85;;;0.50;;
47053;SDS011;32811;52.382;5.270;2023-03-14T06:43:43;4.63;;;0.52;;
47053;SDS011;32811;52.382;5.270;2023-03-14T06:46:10;1.08;;;0.32;;
47053;SDS011;32811;52.382;5.270;2023-03-14T06:48:36;1.08;;;0.43;;
47053;SDS011;32811;52.382;5.270;2023-03-14T06:51:03;4.35;;;0.47;;
47053;SDS011;32811;52.382;5.270;2023-03-14T06:53:30;4.18;;;0.20;;
47053;SDS011;32811;52.382;5.270;2023-03-14T06:55:56;3.83;;;0.30;;
47053;SDS011;32811;52.382;5.270;2023-03-14T06:58:23;1.92;;;0.25;;
47053;SDS011;32811;52.382;5.270;2023-03-14T07:00:49;4.00;;;0.40;;
47053;SDS011;32811;52.382;5.270;2023-03-14T07:03:16;2.13;;;0.50;;
47053;SDS011;32811;52.382;5.270;2023-03-14T07:05:42;4.03;;;0.50;;
47053;SDS011;32811;52.382;5.270;2023-03-14T07:08:09;2.58;;;0.63;;
47053;SDS011;32811;52.382;5.270;2023-03-14T07:10:36;2.95;;;0.80;;
47053;SDS011;32811;52.382;5.270;2023-03-14T07:13:02;2.25;;;0.40;;
47053;SDS011;32811;52.382;5.270;2023-03-14T07:15:29;2.53;;;0.38;;
47053;SDS011;32811;52.382;5.270;2023-03-14T07:17:56;2.58;;;0.50;;
47053;SDS011;32811;52.382;5.270;2023-03-14T07:20:23;5.60;;;0.55;;
47053;SDS011;32811;52.382;5.270;2023-03-14T07:22:51;7.30;;;0.77;;
47053;SDS011;32811;52.382;5.270;2023-03-14T07:25:17;9.43;;;0.80;;
47053;SDS011;32811;52.382;5.270;2023-03-14T07:27:44;8.02;;;1.15;;
47053;SDS011;32811;52.382;5.270;2023-03-14T07:30:13;10.63;;;1.38;;
47053;SDS011;32811;52.382;5.270;2023-03-14T07:32:50;11.68;;;1.00;;
47053;SDS011;32811;52.382;5.270;2023-03-14T07:35:18;9.30;;;0.80;;
47053;SDS011;32811;52.382;5.270;2023-03-14T07:37:45;10.30;;;1.40;;
47053;SDS011;32811;52.382;5.270;2023-03-14T07:40:12;3.45;;;0.50;;
47053;SDS011;32811;52.382;5.270;2023-03-14T07:42:42;7.20;;;0.70;;
47053;SDS011;32811;52.382;5.270;2023-03-14T07:45:10;17.92;;;1.85;;
47053;SDS011;32811;52.382;5.270;2023-03-14T07:47:37;5.13;;;0.47;;
47053;SDS011;32811;52.382;5.270;2023-03-14T07:50:04;4.18;;;0.95;;
47053;SDS011;32811;52.382;5.270;2023-03-14T07:52:32;4.75;;;0.47;;
47053;SDS011;32811;52.382;5.270;2023-03-14T07:54:59;5.88;;;0.30;;
47053;SDS011;32811;52.382;5.270;2023-03-14T07:57:26;10.23;;;0.60;;
47053;SDS011;32811;52.382;5.270;2023-03-14T07:59:52;4.72;;;0.40;;
47053;SDS011;32811;52.382;5.270;2023-03-14T08:02:19;8.85;;;1.00;;
47053;SDS011;32811;52.382;5.270;2023-03-14T08:04:48;6.95;;;0.55;;
47053;SDS011;32811;52.382;5.270;2023-03-14T08:07:15;2.40;;;0.22;;
47053;SDS011;32811;52.382;5.270;2023-03-14T08:09:42;3.65;;;0.30;;
47053;SDS011;32811;52.382;5.270;2023-03-14T08:12:09;5.82;;;0.63;;
47053;SDS011;32811;52.382;5.270;2023-03-14T08:14:36;2.38;;;0.40;;
47053;SDS011;32811;52.382;5.270;2023-03-14T08:17:02;6.78;;;0.50;;
47053;SDS011;32811;52.382;5.270;2023-03-14T08:19:29;3.72;;;0.57;;
47053;SDS011;32811;52.382;5.270;2023-03-14T08:21:56;2.78;;;0.65;;
47053;SDS011;32811;52.382;5.270;2023-03-14T08:24:23;5.75;;;0.40;;
47053;SDS011;32811;52.382;5.270;2023-03-14T08:26:49;2.20;;;0.30;;
47053;SDS011;32811;52.382;5.270;2023-03-14T08:29:16;7.47;;;1.27;;
47053;SDS011;32811;52.382;5.270;2023-03-14T08:31:54;8.07;;;0.90;;
47053;SDS011;32811;52.382;5.270;2023-03-14T08:34:51;7.15;;;0.68;;
47053;SDS011;32811;52.382;5.270;2023-03-14T08:37:17;7.20;;;1.00;;
47053;SDS011;32811;52.382;5.270;2023-03-14T08:39:52;9.35;;;1.13;;
47053;SDS011;32811;52.382;5.270;2023-03-14T08:42:25;13.98;;;1.35;;
47053;SDS011;32811;52.382;5.270;2023-03-14T08:44:52;11.25;;;2.70;;
47053;SDS011;32811;52.382;5.270;2023-03-14T08:47:39;8.23;;;1.52;;
47053;SDS011;32811;52.382;5.270;2023-03-14T08:50:06;7.68;;;1.88;;
47053;SDS011;32811;52.382;5.270;2023-03-14T08:52:35;11.75;;;1.38;;
47053;SDS011;32811;52.382;5.270;2023-03-14T08:55:04;8.02;;;1.83;;
47053;SDS011;32811;52.382;5.270;2023-03-14T08:57:31;11.30;;;1.92;;
47053;SDS011;32811;52.382;5.270;2023-03-14T09:00:01;8.77;;;2.20;;
47053;SDS011;32811;52.382;5.270;2023-03-14T09:02:27;6.13;;;0.80;;
47053;SDS011;32811;52.382;5.270;2023-03-14T09:04:54;11.13;;;1.63;;
47053;SDS011;32811;52.382;5.270;2023-03-14T09:07:24;13.60;;;2.30;;
47053;SDS011;32811;52.382;5.270;2023-03-14T09:09:53;12.82;;;1.90;;
47053;SDS011;32811;52.382;5.270;2023-03-14T09:12:20;15.55;;;2.00;;
47053;SDS011;32811;52.382;5.270;2023-03-14T09:14:47;12.18;;;2.40;;
47053;SDS011;32811;52.382;5.270;2023-03-14T09:17:13;12.63;;;1.77;;
47053;SDS011;32811;52.382;5.270;2023-03-14T09:19:40;16.55;;;2.55;;
47053;SDS011;32811;52.382;5.270;2023-03-14T09:22:07;15.18;;;1.23;;
47053;SDS011;32811;52.382;5.270;2023-03-14T09:24:36;6.82;;;1.20;;
47053;SDS011;32811;52.382;5.270;2023-03-14T09:27:03;17.42;;;2.13;;
47053;SDS011;32811;52.382;5.270;2023-03-14T09:29:30;24.13;;;2.60;;
47053;SDS011;32811;52.382;5.270;2023-03-14T09:31:57;11.02;;;1.70;;
47053;SDS011;32811;52.382;5.270;2023-03-14T09:34:24;17.40;;;1.77;;
47053;SDS011;32811;52.382;5.270;2023-03-14T09:37:04;14.35;;;2.33;;
47053;SDS011;32811;52.382;5.270;2023-03-14T09:39:41;16.70;;;2.75;;
47053;SDS011;32811;52.382;5.270;2023-03-14T09:42:13;10.80;;;1.80;;
47053;SDS011;32811;52.382;5.270;2023-03-14T09:49:55;10.65;;;1.50;;
47053;SDS011;32811;52.382;5.270;2023-03-14T09:52:23;19.67;;;3.10;;
47053;SDS011;32811;52.382;5.270;2023-03-14T09:54:57;14.50;;;1.23;;
47053;SDS011;32811;52.382;5.270;2023-03-14T09:57:28;22.77;;;2.25;;
47053;SDS011;32811;52.382;5.270;2023-03-14T09:59:56;9.63;;;2.13;;
47053;SDS011;32811;52.382;5.270;2023-03-14T10:02:28;25.20;;;2.15;;
47053;SDS011;32811;52.382;5.270;2023-03-14T10:05:00;14.35;;;2.13;;
47053;SDS011;32811;52.382;5.270;2023-03-14T10:07:32;16.42;;;2.40;;
47053;SDS011;32811;52.382;5.270;2023-03-14T10:09:59;14.98;;;1.73;;
47053;SDS011;32811;52.382;5.270;2023-03-14T10:12:30;13.13;;;2.42;;
47053;SDS011;32811;52.382;5.270;2023-03-14T10:15:03;23.25;;;2.58;;
47053;SDS011;32811;52.382;5.270;2023-03-14T10:17:43;18.90;;;1.85;;
47053;SDS011;32811;52.382;5.270;2023-03-14T10:20:27;18.77;;;2.72;;
47053;SDS011;32811;52.382;5.270;2023-03-14T10:25:39;24.00;;;3.97;;
47053;SDS011;32811;52.382;5.270;2023-03-14T10:28:24;16.95;;;2.85;;
47053;SDS011;32811;52.382;5.270;2023-03-14T10:30:54;21.05;;;4.18;;
47053;SDS011;32811;52.382;5.270;2023-03-14T10:33:26;8.65;;;1.30;;
47053;SDS011;32811;52.382;5.270;2023-03-14T10:35:58;25.38;;;3.08;;
47053;SDS011;32811;52.382;5.270;2023-03-14T10:38:27;16.85;;;2.63;;
47053;SDS011;32811;52.382;5.270;2023-03-14T10:40:56;9.75;;;1.75;;
47053;SDS011;32811;52.382;5.270;2023-03-14T10:43:30;15.63;;;2.60;;
47053;SDS011;32811;52.382;5.270;2023-03-14T10:48:38;15.65;;;3.15;;
47053;SDS011;32811;52.382;5.270;2023-03-14T10:54:13;15.80;;;1.92;;
47053;SDS011;32811;52.382;5.270;2023-03-14T10:56:56;15.20;;;2.88;;
47053;SDS011;32811;52.382;5.270;2023-03-14T10:59:42;7.22;;;1.10;;
47053;SDS011;32811;52.382;5.270;2023-03-14T11:02:28;14.77;;;1.52;;
47053;SDS011;32811;52.382;5.270;2023-03-14T11:11:22;10.52;;;1.58;;
47053;SDS011;32811;52.382;5.270;2023-03-14T11:14:15;10.63;;;1.55;;
47053;SDS011;32811;52.382;5.270;2023-03-14T11:16:54;13.48;;;2.42;;
47053;SDS011;32811;52.382;5.270;2023-03-14T11:25:07;19.40;;;1.65;;
47053;SDS011;32811;52.382;5.270;2023-03-14T11:36:51;10.07;;;1.20;;
47053;SDS011;32811;52.382;5.270;2023-03-14T11:39:25;9.25;;;1.20;;
47053;SDS011;32811;52.382;5.270;2023-03-14T11:41:57;11.88;;;1.25;;
47053;SDS011;32811;52.382;5.270;2023-03-14T11:44:35;11.65;;;1.02;;
47053;SDS011;32811;52.382;5.270;2023-03-14T11:47:17;13.73;;;2.83;;
47053;SDS011;32811;52.382;5.270;2023-03-14T11:50:29;10.07;;;1.45;;
47053;SDS011;32811;52.382;5.270;2023-03-14T11:57:03;8.73;;;1.40;;
47053;SDS011;32811;52.382;5.270;2023-03-14T12:02:22;3.33;;;0.90;;
47053;SDS011;32811;52.382;5.270;2023-03-14T12:07:33;3.15;;;0.80;;
47053;SDS011;32811;52.382;5.270;2023-03-14T12:10:19;10.13;;;1.65;;
47053;SDS011;32811;52.382;5.270;2023-03-14T12:12:45;10.38;;;2.00;;
47053;SDS011;32811;52.382;5.270;2023-03-14T12:15:20;14.18;;;1.75;;
47053;SDS011;32811;52.382;5.270;2023-03-14T12:17:55;4.25;;;0.68;;
47053;SDS011;32811;52.382;5.270;2023-03-14T12:20:25;7.63;;;1.08;;
47053;SDS011;32811;52.382;5.270;2023-03-14T12:22:53;3.22;;;0.63;;
47053;SDS011;32811;52.382;5.270;2023-03-14T12:25:24;11.45;;;0.98;;
47053;SDS011;32811;52.382;5.270;2023-03-14T12:30:26;5.40;;;0.90;;
47053;SDS011;32811;52.382;5.270;2023-03-14T12:35:57;6.28;;;1.35;;
47053;SDS011;32811;52.382;5.270;2023-03-14T12:41:46;7.85;;;0.77;;
47053;SDS011;32811;52.382;5.270;2023-03-14T12:47:00;5.90;;;0.65;;
47053;SDS011;32811;52.382;5.270;2023-03-14T12:49:48;5.80;;;1.10;;
47053;SDS011;32811;52.382;5.270;2023-03-14T12:57:55;5.07;;;0.82;;
47053;SDS011;32811;52.382;5.270;2023-03-14T13:00:41;5.95;;;0.90;;
47053;SDS011;32811;52.382;5.270;2023-03-14T13:03:18;12.25;;;1.42;;
47053;SDS011;32811;52.382;5.270;2023-03-14T13:05:55;8.32;;;1.08;;
47053;SDS011;32811;52.382;5.270;2023-03-14T13:11:14;7.07;;;0.95;;
47053;SDS011;32811;52.382;5.270;2023-03-14T13:14:41;6.78;;;1.02;;
47053;SDS011;32811;52.382;5.270;2023-03-14T13:17:14;6.75;;;0.90;;
47053;SDS011;32811;52.382;5.270;2023-03-14T13:20:09;6.82;;;1.05;;
47053;SDS011;32811;52.382;5.270;2023-03-14T13:22:45;6.93;;;1.27;;
47053;SDS011;32811;52.382;5.270;2023-03-14T13:25:13;3.72;;;0.70;;
47053;SDS011;32811;52.382;5.270;2023-03-14T13:27:40;3.88;;;1.20;;
47053;SDS011;32811;52.382;5.270;2023-03-14T13:30:13;6.65;;;0.82;;
47053;SDS011;32811;52.382;5.270;2023-03-14T13:32:43;10.37;;;0.93;;
47053;SDS011;32811;52.382;5.270;2023-03-14T13:35:15;7.80;;;1.60;;
47053;SDS011;32811;52.382;5.270;2023-03-14T13:37:42;6.43;;;1.02;;
47053;SDS011;32811;52.382;5.270;2023-03-14T13:40:18;16.65;;;1.27;;
47053;SDS011;32811;52.382;5.270;2023-03-14T13:42:47;6.43;;;0.80;;
47053;SDS011;32811;52.382;5.270;2023-03-14T13:45:14;10.90;;;0.90;;
47053;SDS011;32811;52.382;5.270;2023-03-14T13:47:40;5.88;;;1.10;;
47053;SDS011;32811;52.382;5.270;2023-03-14T13:50:15;7.15;;;0.60;;
47053;SDS011;32811;52.382;5.270;2023-03-14T13:52:43;7.95;;;0.77;;
47053;SDS011;32811;52.382;5.270;2023-03-14T13:55:17;13.88;;;1.38;;
47053;SDS011;32811;52.382;5.270;2023-03-14T14:00:20;11.15;;;1.33;;
47053;SDS011;32811;52.382;5.270;2023-03-14T14:02:50;6.88;;;0.95;;
47053;SDS011;32811;52.382;5.270;2023-03-14T14:05:17;6.70;;;1.88;;
47053;SDS011;32811;52.382;5.270;2023-03-14T14:07:44;5.50;;;1.23;;
47053;SDS011;32811;52.382;5.270;2023-03-14T14:10:12;9.13;;;1.00;;
47053;SDS011;32811;52.382;5.270;2023-03-14T14:12:45;4.70;;;0.70;;
47053;SDS011;32811;52.382;5.270;2023-03-14T14:15:18;4.88;;;0.75;;
47053;SDS011;32811;52.382;5.270;2023-03-14T14:17:50;5.88;;;0.70;;
47053;SDS011;32811;52.382;5.270;2023-03-14T14:23:02;4.80;;;0.95;;
47053;SDS011;32811;52.382;5.270;2023-03-14T14:25:31;3.88;;;0.70;;
47053;SDS011;32811;52.382;5.270;2023-03-14T14:27:59;5.30;;;1.33;;
47053;SDS011;32811;52.382;5.270;2023-03-14T14:30:46;4.85;;;1.05;;
47053;SDS011;32811;52.382;5.270;2023-03-14T14:33:28;7.70;;;1.00;;
47053;SDS011;32811;52.382;5.270;2023-03-14T14:35:56;3.88;;;1.17;;
47053;SDS011;32811;52.382;5.270;2023-03-14T14:38:25;6.63;;;1.02;;
47053;SDS011;32811;52.382;5.270;2023-03-14T14:40:55;4.88;;;0.70;;
47053;SDS011;32811;52.382;5.270;2023-03-14T14:43:27;11.73;;;1.20;;
47053;SDS011;32811;52.382;5.270;2023-03-14T14:45:56;4.35;;;0.90;;
47053;SDS011;32811;52.382;5.270;2023-03-14T14:48:27;6.88;;;1.17;;
47053;SDS011;32811;52.382;5.270;2023-03-14T14:50:55;10.70;;;0.90;;
47053;SDS011;32811;52.382;5.270;2023-03-14T14:56:18;8.60;;;0.73;;
47053;SDS011;32811;52.382;5.270;2023-03-14T14:58:55;10.57;;;0.90;;
47053;SDS011;32811;52.382;5.270;2023-03-14T15:01:37;7.82;;;0.95;;
47053;SDS011;32811;52.382;5.270;2023-03-14T15:04:09;10.00;;;1.00;;
47053;SDS011;32811;52.382;5.270;2023-03-14T15:06:42;13.60;;;1.52;;
47053;SDS011;32811;52.382;5.270;2023-03-14T15:09:11;6.25;;;0.80;;
47053;SDS011;32811;52.382;5.270;2023-03-14T15:11:38;6.63;;;1.83;;
47053;SDS011;32811;52.382;5.270;2023-03-14T15:14:05;7.03;;;1.85;;
47053;SDS011;32811;52.382;5.270;2023-03-14T15:16:33;8.93;;;0.80;;
47053;SDS011;32811;52.382;5.270;2023-03-14T15:19:00;6.90;;;1.15;;
47053;SDS011;32811;52.382;5.270;2023-03-14T15:21:48;7.57;;;1.70;;
47053;SDS011;32811;52.382;5.270;2023-03-14T15:24:14;8.90;;;1.13;;
47053;SDS011;32811;52.382;5.270;2023-03-14T15:26:42;7.93;;;0.52;;
47053;SDS011;32811;52.382;5.270;2023-03-14T15:29:11;4.72;;;0.60;;
47053;SDS011;32811;52.382;5.270;2023-03-14T15:31:39;6.25;;;0.80;;
47053;SDS011;32811;52.382;5.270;2023-03-14T15:34:06;3.55;;;0.75;;
47053;SDS011;32811;52.382;5.270;2023-03-14T15:36:33;3.80;;;0.52;;
47053;SDS011;32811;52.382;5.270;2023-03-14T15:39:02;4.00;;;0.82;;
47053;SDS011;32811;52.382;5.270;2023-03-14T15:41:30;9.27;;;0.90;;
47053;SDS011;32811;52.382;5.270;2023-03-14T15:43:57;4.68;;;0.93;;
47053;SDS011;32811;52.382;5.270;2023-03-14T15:46:24;7.20;;;0.75;;
47053;SDS011;32811;52.382;5.270;2023-03-14T15:48:51;5.78;;;0.70;;
47053;SDS011;32811;52.382;5.270;2023-03-14T15:51:18;6.80;;;1.95;;
47053;SDS011;32811;52.382;5.270;2023-03-14T15:53:45;5.57;;;0.60;;
47053;SDS011;32811;52.382;5.270;2023-03-14T15:56:15;2.95;;;0.98;;
47053;SDS011;32811;52.382;5.270;2023-03-14T15:58:44;7.45;;;0.88;;
47053;SDS011;32811;52.382;5.270;2023-03-14T16:01:14;9.82;;;0.70;;
47053;SDS011;32811;52.382;5.270;2023-03-14T16:03:45;5.70;;;0.70;;
47053;SDS011;32811;52.382;5.270;2023-03-14T16:06:12;7.13;;;0.98;;
47053;SDS011;32811;52.382;5.270;2023-03-14T16:08:40;11.38;;;0.95;;
47053;SDS011;32811;52.382;5.270;2023-03-14T16:11:08;8.38;;;0.70;;
47053;SDS011;32811;52.382;5.270;2023-03-14T16:13:35;10.82;;;1.88;;
47053;SDS011;32811;52.382;5.270;2023-03-14T16:16:04;6.72;;;0.50;;
47053;SDS011;32811;52.382;5.270;2023-03-14T16:18:32;4.45;;;0.98;;
47053;SDS011;32811;52.382;5.270;2023-03-14T16:21:04;12.82;;;2.03;;
47053;SDS011;32811;52.382;5.270;2023-03-14T16:23:33;22.45;;;1.90;;